Archival Weather

Pemba

Pemba, Mozambique (FQPB)

Report from: Saturday, April 1, 2023 3:00 PM CAT
Current time: Saturday, June 22, 2024 2:56 AM CAT

Current weather – Weather history – Daily summaries
Weather forecast

Temperature30.0°C (86.0°F)
Heat index35.2°C (95.4°F)
Dew point24.0°C (75.2°F)
Winds 13 kts (6.7 m/s, 15 mph) Southeast (140°)
Visibility6.2 mi. (10 km)
Clouds Ceiling: Broken clouds 0 ft. (0 m)
Scattered clouds 2,000 ft. (610 m)
Few clouds with cumulonimbus 2,500 ft. (762 m)
Altimeter29.85 in.Hg (1011 mB)
Relative humidity70 %
Density altitude2,194 ft. (669 m)
Remarks Cumulonimbus clouds observed
Flight conditions Low Instrument Meteorological Conditions
Raw dataFQPB 011300Z 14013KT 9999 SCT020 FEW025CB BKN/// 30/24 Q1011 RMK CB TO SW/W/NW/N
An error has occurred. This application may no longer respond until reloaded. Reload 🗙